KCDS/CDS METAR and TAF weather

Enter ICAO airport designator
Station Type Date Time Source
KCDS METAR 2019/08/22 02:53 UTC NOAA

KCDS 220253Z AUTO 16006KT 10SM CLR 29/15 A2993 RMK AO2 SLP106 T02890150 53016


Station Type Date Time Source
KCDS Decoded METAR 2019/08/22 02:53 UTC NOAA

Station name not available
Aug 21, 2019 - 10:53 PM EDT / 2019.08.22 0253 UTC
Wind: from the SSE (160 degrees) at 7 MPH (6 KT):0
Visibility: 10 mile(s):0
Sky conditions: clear
Temperature: 84.0 F (28.9 C)
Dew Point: 59.0 F (15.0 C)
Relative Humidity: 42%
Pressure (altimeter): 29.93 in. Hg (1013 hPa)
Pressure tendency: 0.05 inches (1.6 hPa) higher than three hours ago
ob: KCDS 220253Z AUTO 16006KT 10SM CLR 29/15 A2993 RMK AO2 SLP106 T02890150 53016
cycle: 3

Station Type Date Time Source
KCDS TAF 2019/08/22 00:03 UTC NOAA

TAF KCDS 220001Z 2200/2224 16011KT P6SM FEW250

Example: see airport list